KILN/ILN METAR and TAF weather

Enter ICAO airport designator
Station Type Date Time Source
KILN METAR 2019/05/27 08:54 UTC NOAA

KILN 270854Z AUTO 00000KT 10SM BKN085 17/17 A3004 RMK AO2 SLP167 T01670167 55003


Station Type Date Time Source
KILN Decoded METAR 2019/05/27 08:54 UTC NOAA

WILMINGTON INDUSTRIAL AIRPORT , OH, United States (KILN) 39-26N 083-47W 332M
May 27, 2019 - 04:54 AM EDT / 2019.05.27 0854 UTC
Wind: Calm:0
Visibility: 10 mile(s):0
Sky conditions: mostly cloudy
Temperature: 62.1 F (16.7 C)
Dew Point: 62.1 F (16.7 C)
Relative Humidity: 100%
Pressure (altimeter): 30.04 in. Hg (1017 hPa)
Pressure tendency: 0.01 inches (0.3 hPa) lower than three hours ago
ob: KILN 270854Z AUTO 00000KT 10SM BKN085 17/17 A3004 RMK AO2 SLP167 T01670167 55003
cycle: 9

Station Type Date Time Source
KILN TAF 2019/05/27 06:39 UTC NOAA

TAF KILN 270537Z 2706/2806 34003KT P6SM SCT100
FM271000 01003KT 5SM BR BKN025
TEMPO 2710/2712 2SM BR BKN012
FM271300 11003KT P6SM FEW030 SCT150
FM272000 19006KT P6SM VCSH SCT040 BKN150

Example: see airport list